Home > Products > Valid Products > MTR

000
SAUS43 KBIS 240554
MTRN60
METAR KN60 240552Z AUTO 19004KT 01/01 A2969 RMK AO1 SLP063 60001
T00110011 10078 20011 401440011 53008





000
SAUS43 KBIS 240453
MTRN60
METAR KN60 240452Z AUTO 20003KT 03/03 A2968 RMK AO1 SLP059 T00330028





000
SAUS43 KBIS 240354
MTRN60
METAR KN60 240352Z AUTO 13003KT 03/03 A2967 RMK AO1 SLP058 T00330028





000
SAUS43 KBIS 240254
MTRN60
METAR KN60 240252Z AUTO 19003KT 03/02 A2966 RMK AO1 SLP057 60001
T00330022 53020





000
SAUS43 KBIS 240153
MTRN60
METAR KN60 240152Z AUTO 26005KT 06/04 A2964 RMK AO1 SLP045 T00610044





000
SAUS43 KBIS 240053
MTRN60
METAR KN60 240052Z AUTO 33011KT 08/06 A2962 RMK AO1 SLP038 P0001
T00780056





000
SAUS43 KBIS 232353
MTRN60
METAR KN60 232352Z AUTO 30013KT 08/06 A2960 RMK AO1 PK WND
30029/2320 WSHFT 2312 SLP033 P0001 60009 T00780056 10144 20078 53024





000
SAUS43 KBIS 232333
MTRN60
SPECI KN60 232332Z AUTO 31019G28KT 08/06 A2958 RMK AO1 PK WND
30029/2320 WSHFT 2312 T00830056





000
SAUS43 KBIS 232253
MTRN60
METAR KN60 232252Z AUTO 13009KT 10/07 A2954 RMK AO1 SLP010 T01000067





000
SAUS43 KBIS 232154
MTRN60
METAR KN60 232152Z AUTO 15008G18KT 11/07 A2954 RMK AO1 SLP010
T01060067





000
SAUS43 KBIS 232054
MTRN60
METAR KN60 232052Z AUTO 16011KT 10/07 A2953 RMK AO1 SLP005 P0001
60008 T01000067 50008





000
SAUS43 KBIS 231954
MTRN60
METAR KN60 231952Z AUTO 14014KT 10/07 A2953 RMK AO1 PK WND
16027/1855 SLP005 P0007 T01000072





000
SAUS43 KBIS 231853
MTRN60
METAR KN60 231852Z AUTO 16017G27KT 12/05 A2952 RMK AO1 PK WND
16030/1815 SLP002 T01170050





000
SAUS43 KBIS 231754
MTRN60
METAR KN60 231752Z AUTO 15021G29KT 14/04 A2950 RMK AO1 PK WND
14032/1738 SLP993 60007 T01390039 10144 20078 56013





000
SAUS43 KBIS 231654
MTRN60
METAR KN60 231652Z AUTO 15023G34KT 13/04 A2952 RMK AO1 PK WND
14034/1631 SLP998 T01280044





000
SAUS43 KBIS 231554
MTRN60
METAR KN60 231552Z AUTO 12025G33KT 10/06 A2953 RMK AO1 PK WND
12036/1536 SLP003 T01000056





000
SAUS43 KBIS 231453
MTRN60
METAR KN60 231452Z AUTO 12024G33KT 09/05 A2954 RMK AO1 PK WND
12036/1420 SLP009 60007 T00890050 58015





000
SAUS43 KBIS 231353
MTRN60
METAR KN60 231352Z AUTO 13028G37KT 09/04 A2956 RMK AO1 PK WND
13037/1350 SLP014 T00890044





000
SAUS43 KBIS 231253
MTRN60
METAR KN60 231252Z AUTO 12022G29KT 08/ A2958 RMK AO1 PK WND
12032/1213 SLP019 P0007 T0083 $





000
SAUS43 KBIS 231154
MTRN60
METAR KN60 231152Z AUTO 12020KT 09/ A2959 RMK AO1 SLP021 P0004 60007
70008 T0089 10106 20083 56024 $





000
SAUS43 KBIS 231054
MTRN60
METAR KN60 231052Z AUTO 12018KT 09/06 A2962 RMK AO1 PK WND
13028/1012 SLP030 T00890056





000
SAUS43 KBIS 230954
MTRN60
METAR KN60 230952Z AUTO 12019KT 09/07 A2962 RMK AO1 SLP028 P0003
T00940072





000
SAUS43 KBIS 230854
MTRN60
METAR KN60 230852Z AUTO 13009KT 08/03 A2966 RMK AO1 SLP044 T00830028
56010





000
SAUS43 KBIS 230754
MTRN60
METAR KN60 230752Z AUTO 11016G22KT 10/02 A2967 RMK AO1 PK WND
11031/0712 SLP045 T01000017





000
SAUS43 KBIS 230653
MTRN60
METAR KN60 230652Z AUTO 11021G30KT 11/01 A2968 RMK AO1 PK WND
11033/0635 SLP048 T01060011





000
SAUS43 KBIS 230554
MTRN60
METAR KN60 230552Z AUTO 11021G28KT 11/01 A2970 RMK AO1 PK WND
11030/0524 SLP056 T01060011 10183 20100 402171017 58021





000
SAUS43 KBIS 230453
MTRN60
METAR KN60 230452Z AUTO 11021G27KT 11/01 A2972 RMK AO1 PK WND
11027/0444 SLP066 T01060011





000
SAUS43 KBIS 230354
MTRN60
METAR KN60 230352Z AUTO 11016G23KT 11/01 A2976 RMK AO1 SLP080
T01110011





000
SAUS43 KBIS 230254
MTRN60
METAR KN60 230252Z AUTO 11016KT 12/01 A2976 RMK AO1 SLP085 T01170011
55003





000
SAUS43 KBIS 230154
MTRN60
METAR KN60 230152Z AUTO 12015KT 13/01 A2975 RMK AO1 SLP083 T01330006





000
SAUS43 KBIS 230053
MTRN60
METAR KN60 230052Z AUTO 13016KT 17/01 A2976 RMK AO1 SLP086 T01670006





000
SAUS43 KBIS 222354
MTRN60
METAR KN60 222352Z AUTO 13019G26KT 18/00 A2977 RMK AO1 PK WND
13026/2345 SLP091 T01830000 10217 20183 56019





000
SAUS43 KBIS 222253
MTRN60
METAR KN60 222252Z AUTO 14016G24KT 19/M01 A2979 RMK AO1 PK WND
13026/2225 SLP097 T01941006





000
SAUS43 KBIS 222154
MTRN60
METAR KN60 222152Z AUTO 14020G26KT 21/M01 A2980 RMK AO1 PK WND
12026/2106 SLP098 T02061006





000
SAUS43 KBIS 222054
MTRN60
METAR KN60 222052Z AUTO 14018G25KT 21/M01 A2983 RMK AO1 PK WND
13026/1959 SLP108 T02111011 56028





000
SAUS43 KBIS 221954
MTRN60
METAR KN60 221952Z AUTO 14018G22KT 21/M01 A2986 RMK AO1 SLP115
T02061011





000
SAUS43 KBIS 221853
MTRN60
METAR KN60 221852Z AUTO 13014G23KT 20/M02 A2988 RMK AO1 SLP125
T02001017





000
SAUS43 KBIS 221754
MTRN60
METAR KN60 221752Z AUTO 13015G20KT 18/M02 A2992 RMK AO1 SLP139 60001
T01831022 10183 21017 56026





000
SAUS43 KBIS 221653
MTRN60
METAR KN60 221652Z AUTO 12013KT 16/M02 A2995 RMK AO1 SLP148
T01611017





000
SAUS43 KBIS 221554
MTRN60
METAR KN60 221552Z AUTO 12010KT 13/01 A2997 RMK AO1 SLP156 T01330011





000
SAUS43 KBIS 221453
MTRN60
METAR KN60 221452Z AUTO 11008KT 09/01 A3000 RMK AO1 SLP170 P0001
60001 T00890011 58014





000
SAUS43 KBIS 221354
MTRN60
METAR KN60 221352Z AUTO 10006KT 05/02 A3002 RMK AO1 SLP178 T00500017





000
SAUS43 KBIS 221254
MTRN60
METAR KN60 221252Z AUTO 08004KT 01/M01 A3005 RMK AO1 SLP186
T00111006





000
SAUS43 KBIS 221154
MTRN60
METAR KN60 221152Z AUTO 00000KT M01/M02 A3005 RMK AO1 SLP186
T10061022 10033 21017 56010





000
SAUS43 KBIS 221053
MTRN60
METAR KN60 221052Z AUTO 00000KT M01/M03 A3005 RMK AO1 SLP189
T10111028





000
SAUS43 KBIS 220954
MTRN60
METAR KN60 220952Z AUTO 00000KT 00/M02 A3006 RMK AO1 SLP193
T00001022





000
SAUS43 KBIS 220853
MTRN60
METAR KN60 220852Z AUTO 03003KT 00/M03 A3008 RMK AO1 SLP199
T00001028 58005





000
SAUS43 KBIS 220754
MTRN60
METAR KN60 220752Z AUTO 00000KT 02/M02 A3009 RMK AO1 SLP203
T00171017





000
SAUS43 KBIS 220653
MTRN60
METAR KN60 220652Z AUTO 02003KT 02/M02 A3009 RMK AO1 SLP204
T00171022





000
SAUS43 KBIS 220553
MTRN60
METAR KN60 220552Z AUTO 34003KT 02/M02 A3010 RMK AO1 SLP205
T00221017 10161 20006 401610006 56006





000
SAUS43 KBIS 220454
MTRN60
METAR KN60 220452Z AUTO 00000KT 04/M02 A3010 RMK AO1 SLP207
T00441017





000
SAUS43 KBIS 220354
MTRN60
METAR KN60 220352Z AUTO 05004KT 07/M01 A3010 RMK AO1 SLP208
T00721011





000
SAUS43 KBIS 220254
MTRN60
METAR KN60 220252Z AUTO 00000KT 08/M01 A3012 RMK AO1 SLP211
T00831011 55002





000
SAUS43 KBIS 220154
MTRN60
METAR KN60 220152Z AUTO 05003KT 12/M01 A3011 RMK AO1 SLP208
T01171006





000
SAUS43 KBIS 220053
MTRN60
METAR KN60 220052Z AUTO 03005KT 14/M01 A3011 RMK AO1 SLP205
T01441011





000
SAUS43 KBIS 212354
MTRN60
METAR KN60 212352Z AUTO 33006KT 16/M01 A3012 RMK AO1 SLP209
T01561006 10161 20094 56011





000
SAUS43 KBIS 212253
MTRN60
METAR KN60 212252Z AUTO 31010G15KT 16/M01 A3013 RMK AO1 SLP211
T01561006





000
SAUS43 KBIS 212154
MTRN60
METAR KN60 212152Z AUTO VRB04KT 14/02 A3014 RMK AO1 SLP217 T01390017





000
SAUS43 KBIS 212053
MTRN60
METAR KN60 212052Z AUTO 19007KT 13/02 A3016 RMK AO1 SLP223 T01280022
56015





000
SAUS43 KBIS 211954
MTRN60
METAR KN60 211952Z AUTO 19007KT 170V240 12/02 A3017 RMK AO1 SLP228
T01220022





000
SAUS43 KBIS 211853
MTRN60
METAR KN60 211852Z AUTO VRB05KT 11/01 A3019 RMK AO1 SLP232 T01110011





000
SAUS43 KBIS 211754
MTRN60
METAR KN60 211752Z AUTO 10/01 A3020 RMK AO1 SLP237 T01000011 10100
20044 58001





000
SAUS43 KBIS 211653
MTRN60
METAR KN60 211652Z AUTO 28005KT 07/01 A3022 RMK AO1 SLP245 T00670011





000
SAUS43 KBIS 211554
MTRN60
METAR KN60 211552Z AUTO 33008KT 06/01 A3021 RMK AO1 SLP243 T00560011





000
SAUS43 KBIS 211454
MTRN60
METAR KN60 211452Z AUTO 35012KT 04/01 A3021 RMK AO1 SLP242 T00440011
52025





000
SAUS43 KBIS 211354
MTRN60
METAR KN60 211352Z AUTO 35012KT 04/02 A3018 RMK AO1 SLP233 T00440017





000
SAUS43 KBIS 211253
MTRN60
METAR KN60 211252Z AUTO 34011KT 06/03 A3015 RMK AO1 SLP216 T00560028





000
SAUS43 KBIS 211154
MTRN60
METAR KN60 211152Z AUTO 31011KT 04/02 A3013 RMK AO1 SLP208 T00440022
10089 20017 51021





000
SAUS43 KBIS 211053
MTRN60
METAR KN60 211052Z AUTO 31012KT 04/02 A3012 RMK AO1 SLP204 T00440017





000
SAUS43 KBIS 210954
MTRN60
METAR KN60 210952Z AUTO 27009KT 02/M01 A3009 RMK AO1 SLP195
T00221006





000
SAUS43 KBIS 210853
MTRN60
METAR KN60 210852Z AUTO 30011KT 04/01 A3006 RMK AO1 SLP182 T00440006
53014





000
SAUS43 KBIS 210754
MTRN60
METAR KN60 210752Z AUTO 30011KT 06/00 A3004 RMK AO1 SLP174 T00560000





000
SAUS43 KBIS 210654
MTRN60
METAR KN60 210652Z AUTO 29012KT 08/00 A3002 RMK AO1 SLP168 T00780000





    US Dept of Commerce
    National Oceanic and Atmospheric Administration
    National Weather Service
    1325 East West Highway
    Silver Spring, MD 20910
    Page Author: NWS Internet Services Team
Disclaimer
Information Quality
Credits
Glossary
Privacy Policy
Freedom of Information Act (FOIA)
About Us
Career Opportunities